Lipscomb, Texas
Current Conditions -  °F | °C
As of 5:55 PM on Friday 28 Nov 2014 (Local Time) from KHHF Reporting Station
Clear Clear  
Wind Chill: 68°   Ceiling: Unl
Heat Index: 68°   Visibility: NA
Dew Point: 29°   Wind: 13mph
Humidity: 23%   Direction: 170°S
Pressure: 29.79"   Gusts: NA
Location:  36.23°N, 100.27°W
Report Text: KHHF 282355Z AUTO 17011KT CLR 20/M01 A2979 RMK AO2 T02021015 10285 20180 PWINO
Loading
Personal Weather Stations






























Interactive Weather Map New forecast layout! Learn more

10-Day Weather Forecast

Advertisements
Track Severe Weather on mobile